Time;durP1;ratioP1;P1;durP2;ratioP2;P2;SDS_P1;SDS_P2;PMS_P1;PMS_P2;Temp;Humidity;BMP_temperature;BMP_pressure;BME280_temperature;BME280_humidity;BME280_pressure;Samples;Min_cycle;Max_cycle;Signal;HPM_P1;HPM_P2
2023/07/11 00:08:47;;;;;;;3.45;1.00;;;;;;;;;;20907155;28;20233;-71
2023/07/11 00:18:49;;;;;;;3.63;1.23;;;;;;;;;;20948894;28;20224;-71
2023/07/11 00:28:51;;;;;;;2.20;1.27;;;;;;;;;;20860775;28;20236;-71
2023/07/11 00:38:53;;;;;;;1.90;1.05;;;;;;;;;;20887422;28;20557;-71
2023/07/11 00:48:56;;;;;;;2.58;0.82;;;;;;;;;;20870440;28;20639;-71
2023/07/11 00:58:58;;;;;;;1.70;1.02;;;;;;;;;;20869391;28;20228;-71
2023/07/11 01:09:04;;;;;;;2.90;0.95;;;27.90;83.90;;;;;;20914918;28;20783;-71
2023/07/11 01:19:06;;;;;;;1.40;0.80;;;;;;;;;;20911011;28;20225;-71
2023/07/11 01:29:09;;;;;;;1.65;0.95;;;;;;;;;;20927732;28;20286;-71
2023/07/11 01:39:10;;;;;;;3.25;1.10;;;;;;;;;;20933604;28;20282;-71
2023/07/11 01:49:12;;;;;;;1.67;1.13;;;;;;;;;;20966191;28;20273;-71
2023/07/11 01:59:14;;;;;;;1.42;0.90;;;;;;;;;;20949512;28;20225;-71
2023/07/11 02:09:17;;;;;;;1.20;0.85;;;;;;;;;;20885890;28;20655;-71
2023/07/11 02:19:21;;;;;;;1.33;0.80;;;;;;;;;;20848733;28;20235;-71
2023/07/11 02:29:23;;;;;;;1.73;0.93;;;;;;;;;;20894330;28;20663;-71
2023/07/11 02:39:25;;;;;;;1.70;1.10;;;;;;;;;;20931071;28;20220;-71
2023/07/11 02:49:27;;;;;;;2.13;1.20;;;;;;;;;;20945234;28;20289;-71
2023/07/11 02:59:29;;;;;;;1.75;1.13;;;26.60;88.10;;;;;;20961842;28;20211;-71
2023/07/11 03:09:32;;;;;;;1.40;0.90;;;;;;;;;;20901788;28;20235;-71
2023/07/11 03:19:34;;;;;;;2.05;1.17;;;;;;;;;;20913386;28;20691;-71
2023/07/11 03:29:36;;;;;;;3.00;1.20;;;;;;;;;;20892994;28;20228;-71
2023/07/11 03:39:38;;;;;;;1.75;1.20;;;;;;;;;;20913298;28;20709;-71
2023/07/11 03:49:40;;;;;;;5.20;1.58;;;;;;;;;;20957249;28;20211;-69
2023/07/11 03:59:41;;;;;;;2.55;1.33;;;;;;;;;;20940178;28;20223;-68
2023/07/11 04:09:43;;;;;;;5.55;1.70;;;;;;;;;;20912125;28;20262;-70
2023/07/11 04:19:45;;;;;;;3.42;1.35;;;;;;;;;;20939246;28;20227;-69
2023/07/11 04:29:47;;;;;;;2.85;1.27;;;;;;;;;;20938893;28;20228;-69
2023/07/11 04:39:49;;;;;;;2.58;1.20;;;;;;;;;;20900008;28;20287;-69
2023/07/11 04:49:52;;;;;;;2.83;1.10;;;;;;;;;;20911109;22;20291;-86
2023/07/11 04:59:54;;;;;;;2.67;1.05;;;;;;;;;;20847525;28;20240;-85
2023/07/11 05:09:56;;;;;;;1.75;1.23;;;;;;;;;;20871913;28;20240;-86
2023/07/11 05:19:57;;;;;;;2.90;1.13;;;;;;;;;;20859506;28;20226;-84
2023/07/11 05:29:59;;;;;;;1.80;1.13;;;;;;;;;;20852288;28;20266;-85
2023/07/11 05:40:34;;;;;;;;;;;;;;;;;;;;;
2023/07/11 05:50:46;;;;;;;2.47;1.30;;;;;;;;;;20850672;28;20241;-85
2023/07/11 06:00:52;;;;;;;4.35;1.80;;;;;;;;;;20849448;28;20213;-88
2023/07/11 06:10:56;;;;;;;3.17;1.50;;;;;;;;;;20891235;28;20236;-86
2023/07/11 06:21:00;;;;;;;4.10;1.50;;;;;;;;;;20864353;28;20247;-86
2023/07/11 06:31:02;;;;;;;2.58;1.05;;;;;;;;;;20879222;28;20228;-85
2023/07/11 06:41:04;;;;;;;2.65;1.40;;;;;;;;;;20898563;28;20229;-85
2023/07/11 06:51:10;;;;;;;2.05;1.10;;;;;;;;;;20876556;28;20233;-86
2023/07/11 07:01:12;;;;;;;2.13;1.30;;;;;;;;;;20905103;28;20217;-84
2023/07/11 07:11:14;;;;;;;1.60;0.98;;;;;;;;;;20893700;28;20295;-86
2023/07/11 07:21:16;;;;;;;2.90;1.30;;;;;;;;;;20864602;28;20577;-85
2023/07/11 07:31:17;;;;;;;2.85;1.50;;;;;;;;;;20867443;28;20269;-85
2023/07/11 07:41:20;;;;;;;2.78;1.20;;;;;;;;;;20851090;28;20220;-85
2023/07/11 07:51:22;;;;;;;3.03;1.67;;;;;;;;;;20870522;28;20296;-85
2023/07/11 08:01:24;;;;;;;2.00;1.27;;;;;;;;;;20858544;28;20763;-85
2023/07/11 08:11:26;;;;;;;1.70;1.17;;;;;;;;;;20919897;28;20252;-85
2023/07/11 08:21:28;;;;;;;4.13;1.52;;;;;;;;;;20874321;28;20773;-85
2023/07/11 08:31:29;;;;;;;2.60;1.48;;;;;;;;;;20893021;28;20684;-85
2023/07/11 08:42:00;;;;;;;2.85;1.50;;;28.90;88.90;;;;;;20902012;28;20292;-85
2023/07/11 08:52:03;;;;;;;2.22;1.45;;;29.20;89.70;;;;;;20874467;28;20293;-85
2023/07/11 09:02:11;;;;;;;2.05;1.35;;;;;;;;;;20860264;28;20224;-84
2023/07/11 09:12:19;;;;;;;2.10;1.17;;;;;;;;;;20882223;28;20230;-84
2023/07/11 09:22:30;;;;;;;2.25;1.40;;;;;;;;;;20892715;28;20984;-82
2023/07/11 09:32:34;;;;;;;3.38;1.20;;;;;;;;;;20888043;28;20227;-84
2023/07/11 09:42:48;;;;;;;2.17;1.40;;;;;;;;;;20863165;28;20706;-83
2023/07/11 09:52:51;;;;;;;3.00;1.80;;;;;;;;;;20892465;28;20280;-83
2023/07/11 10:02:52;;;;;;;3.58;2.00;;;;;;;;;;20869771;28;20577;-84
2023/07/11 10:12:54;;;;;;;5.53;2.15;;;;;;;;;;20879886;28;20645;-83
2023/07/11 10:23:02;;;;;;;5.88;1.70;;;;;;;;;;20910516;28;20712;-86
2023/07/11 10:33:09;;;;;;;3.20;1.80;;;;;;;;;;20881382;28;20238;-84
2023/07/11 10:43:27;;;;;;;3.67;1.58;;;;;;;;;;20860894;28;20214;-84
2023/07/11 10:53:33;;;;;;;2.55;1.70;;;;;;;;;;20920022;28;20278;-86
2023/07/11 11:03:45;;;;;;;2.67;1.50;;;;;;;;;;20905013;28;20229;-84
2023/07/11 11:14:05;;;;;;;2.05;1.45;;;;;;;;;;20874625;28;20267;-85
2023/07/11 11:24:10;;;;;;;1.77;1.30;;;;;;;;;;20899514;28;20226;-86
2023/07/11 11:34:15;;;;;;;3.65;1.50;;;;;;;;;;20929900;28;20445;-85
2023/07/11 11:44:22;;;;;;;2.60;1.40;;;;;;;;;;20914666;28;20217;-84
2023/07/11 11:54:26;;;;;;;2.00;1.08;;;;;;;;;;20874946;28;20238;-85
2023/07/11 12:04:28;;;;;;;2.50;1.20;;;;;;;;;;20893942;28;20276;-85
2023/07/11 12:14:38;;;;;;;2.33;1.48;;;;;;;;;;20892520;28;20784;-85
2023/07/11 12:24:44;;;;;;;2.42;1.20;;;;;;;;;;20903268;28;20226;-85
2023/07/11 12:34:53;;;;;;;3.03;1.38;;;;;;;;;;20855258;28;20291;-85
2023/07/11 12:45:47;;;;;;;4.38;1.40;;;;;;;;;;20881026;28;20248;-85
2023/07/11 12:55:52;;;;;;;1.67;1.30;;;;;;;;;;20709304;28;20707;-85
2023/07/11 13:05:56;;;;;;;2.03;1.20;;;;;;;;;;20885586;28;20259;-85
2023/07/11 13:16:00;;;;;;;1.70;1.23;;;;;;;;;;20918778;28;20590;-84
2023/07/11 13:26:12;;;;;;;2.38;1.50;;;;;;;;;;20875163;28;20233;-85
2023/07/11 13:36:19;;;;;;;3.40;1.60;;;;;;;;;;20873910;28;20219;-86
2023/07/11 13:46:23;;;;;;;11.00;3.00;;;;;;;;;;20865120;28;20219;-83
2023/07/11 13:56:29;;;;;;;1.90;1.50;;;;;;;;;;20787532;28;20672;-83
2023/07/11 14:06:34;;;;;;;4.53;1.63;;;;;;;;;;20820645;28;20249;-84
2023/07/11 14:16:36;;;;;;;2.97;1.63;;;;;;;;;;20832917;28;20281;-84
2023/07/11 14:26:38;;;;;;;2.08;1.23;;;;;;;;;;20853925;28;20238;-83
2023/07/11 14:36:39;;;;;;;2.33;1.60;;;;;;;;;;20845889;28;20608;-84
2023/07/11 14:46:41;;;;;;;3.55;1.60;;;;;;;;;;20853135;28;20233;-85
2023/07/11 14:56:44;;;;;;;2.92;1.88;;;;;;;;;;20936062;28;20267;-83
2023/07/11 15:06:45;;;;;;;2.15;1.50;;;;;;;;;;20883087;28;20283;-84
2023/07/11 15:16:49;;;;;;;2.05;1.48;;;35.00;80.80;;;;;;20916955;28;20225;-85
2023/07/11 15:27:21;;;;;;;2.05;1.30;;;;;;;;;;20878457;28;20234;-86
2023/07/11 15:38:01;;;;;;;1.77;1.38;;;;;;;;;;20895422;28;20613;-86
2023/07/11 15:48:02;;;;;;;2.10;1.55;;;;;;;;;;20855297;28;20234;-88
2023/07/11 15:58:05;;;;;;;1.77;1.42;;;;;;;;;;20868064;28;20691;-84
2023/07/11 16:08:26;;;;;;;3.08;1.42;;;;;;;;;;20851775;28;20237;-82
2023/07/11 16:18:29;;;;;;;1.63;1.17;;;;;;;;;;20899941;28;20253;-83
2023/07/11 16:28:38;;;;;;;2.70;1.50;;;;;;;;;;20867239;28;20646;-83
2023/07/11 16:38:40;;;;;;;4.20;1.65;;;;;;;;;;20891332;28;20252;-84
2023/07/11 16:48:42;;;;;;;2.63;1.50;;;;;;;;;;20837343;28;20226;-85
2023/07/11 16:58:44;;;;;;;4.18;1.80;;;;;;;;;;20891686;28;20222;-84
2023/07/11 17:08:45;;;;;;;2.15;1.40;;;;;;;;;;20885520;28;20225;-84
2023/07/11 17:18:47;;;;;;;3.13;1.70;;;;;;;;;;20897167;28;20805;-85
2023/07/11 17:28:49;;;;;;;6.38;1.77;;;;;;;;;;20822445;28;20256;-85
2023/07/11 17:38:51;;;;;;;2.63;1.52;;;;;;;;;;20848487;28;20270;-84
2023/07/11 17:48:53;;;;;;;4.45;1.35;;;;;;;;;;20845220;28;20349;-84
2023/07/11 17:58:54;;;;;;;2.72;1.70;;;;;;;;;;20831470;28;20222;-84
2023/07/11 18:08:56;;;;;;;4.30;1.60;;;;;;;;;;20816872;28;20236;-84
2023/07/11 18:19:01;;;;;;;2.95;1.50;;;;;;;;;;20873274;28;20229;-84
2023/07/11 18:29:03;;;;;;;0.90;0.80;;;;;;;;;;20880763;28;20276;-83
2023/07/11 18:39:05;;;;;;;2.33;1.30;;;;;;;;;;20823135;28;20218;-85
2023/07/11 18:49:08;;;;;;;2.90;1.60;;;;;;;;;;20815352;28;20296;-85
2023/07/11 18:59:10;;;;;;;3.03;2.40;;;;;;;;;;20892049;28;20226;-85
2023/07/11 19:09:13;;;;;;;3.25;2.00;;;;;;;;;;20900701;22;20779;-69
2023/07/11 19:19:27;;;;;;;2.53;1.77;;;31.90;99.60;;;;;;20875519;28;20264;-71
2023/07/11 19:29:29;;;;;;;4.68;1.75;;;;;;;;;;20858566;28;20230;-69
2023/07/11 19:39:31;;;;;;;3.28;1.80;;;;;;;;;;20854223;28;20221;-69
2023/07/11 19:49:33;;;;;;;2.83;2.13;;;;;;;;;;20837395;28;20210;-68
2023/07/11 19:59:35;;;;;;;3.42;1.75;;;;;;;;;;20820107;28;20210;-68
2023/07/11 20:09:37;;;;;;;2.95;1.80;;;;;;;;;;20841874;28;20233;-68
2023/07/11 20:19:39;;;;;;;3.63;1.67;;;;;;;;;;20850360;28;20271;-68
2023/07/11 20:29:41;;;;;;;2.53;2.00;;;31.60;99.90;;;;;;20849750;28;20720;-68
2023/07/11 20:39:44;;;;;;;3.97;1.85;;;;;;;;;;20808342;28;20211;-68
2023/07/11 20:49:46;;;;;;;4.68;1.50;;;;;;;;;;20767150;28;20293;-71
2023/07/11 20:59:48;;;;;;;2.42;1.55;;;;;;;;;;20766726;28;20222;-71
2023/07/11 21:09:49;;;;;;;1.98;1.25;;;;;;;;;;20808030;28;20277;-68
2023/07/11 21:19:51;;;;;;;5.43;1.90;;;;;;;;;;20764906;28;20219;-71
2023/07/11 21:29:54;;;;;;;2.85;1.20;;;;;;;;;;20779057;28;20226;-68
2023/07/11 21:39:57;;;;;;;1.70;0.90;;;;;;;;;;20817357;28;20222;-69
2023/07/11 21:50:02;;;;;;;2.60;1.48;;;;;;;;;;20840273;28;20292;-69
2023/07/11 22:00:31;;;;;;;1.80;1.10;;;29.40;99.90;;;;;;20768692;28;20214;-68
2023/07/11 22:10:45;;;;;;;3.25;1.45;;;29.00;99.90;;;;;;20841899;28;20221;-68
2023/07/11 22:20:56;;;;;;;2.50;1.40;;;28.70;99.90;;;;;;20825859;28;20700;-70
2023/07/11 22:31:04;;;;;;;1.80;1.13;;;28.40;99.90;;;;;;20825073;28;20224;-71
2023/07/11 22:41:08;;;;;;;2.03;1.05;;;;;;;;;;20837320;28;20229;-69
2023/07/11 22:51:13;;;;;;;1.77;1.02;;;28.10;99.90;;;;;;20848648;28;20299;-68
2023/07/11 23:01:25;;;;;;;1.63;1.00;;;28.40;99.90;;;;;;20815976;28;20234;-68
2023/07/11 23:11:30;;;;;;;2.50;1.17;;;28.50;99.90;;;;;;20854609;28;20290;-69
2023/07/11 23:21:49;;;;;;;2.03;1.00;;;28.40;99.90;;;;;;20811300;28;20279;-69
2023/07/11 23:32:04;;;;;;;1.83;0.90;;;28.40;99.90;;;;;;20804892;28;20245;-69
2023/07/11 23:42:12;;;;;;;3.33;1.23;;;28.30;99.90;;;;;;20826652;28;20228;-69
2023/07/11 23:52:18;;;;;;;1.83;1.20;;;;;;;;;;20875582;28;20236;-69
